Time;durP1;ratioP1;P1;durP2;ratioP2;P2;SDS_P1;SDS_P2;PMS_P1;PMS_P2;Temp;Humidity;BMP_temperature;BMP_pressure;BME280_temperature;BME280_humidity;BME280_pressure;Samples;Min_cycle;Max_cycle;Signal;HPM_P1;HPM_P2
2023/12/18 00:01:24;;;;;;;29.08;13.68;;;7.30;99.90;;;;;;5043875;28;20255;-75
2023/12/18 00:03:49;;;;;;;33.60;24.77;;;7.30;99.90;;;;;;5046993;28;20036;-74
2023/12/18 00:06:15;;;;;;;35.63;16.15;;;7.30;99.90;;;;;;5045764;28;20049;-75
2023/12/18 00:08:41;;;;;;;28.60;13.90;;;7.30;99.90;;;;;;5038307;28;20488;-75
2023/12/18 00:11:06;;;;;;;30.98;14.40;;;7.30;99.90;;;;;;5041456;28;20044;-75
2023/12/18 00:13:32;;;;;;;28.00;12.95;;;7.30;99.90;;;;;;5045403;28;20041;-75
2023/12/18 00:15:58;;;;;;;30.08;14.07;;;7.40;99.90;;;;;;5048683;28;20063;-75
2023/12/18 00:18:23;;;;;;;37.75;21.73;;;7.30;99.90;;;;;;5043684;28;20053;-75
2023/12/18 00:20:50;;;;;;;25.55;13.90;;;7.40;99.90;;;;;;5044503;28;20142;-75
2023/12/18 00:23:16;;;;;;;30.40;14.57;;;7.40;99.90;;;;;;5044496;28;20048;-75
2023/12/18 00:25:43;;;;;;;32.13;15.00;;;7.40;99.90;;;;;;5045441;28;20030;-75
2023/12/18 00:28:08;;;;;;;30.70;15.67;;;7.40;99.90;;;;;;5035768;28;20067;-75
2023/12/18 00:30:34;;;;;;;32.00;14.85;;;7.40;99.90;;;;;;5048196;28;20045;-74
2023/12/18 00:33:00;;;;;;;28.80;15.05;;;7.40;99.90;;;;;;5040595;28;20045;-74
2023/12/18 00:35:25;;;;;;;30.77;14.68;;;7.40;99.90;;;;;;5042377;28;20135;-75
2023/12/18 00:37:51;;;;;;;39.22;26.83;;;7.40;99.90;;;;;;5045119;28;20049;-75
2023/12/18 00:40:16;;;;;;;30.17;14.13;;;7.40;99.90;;;;;;5041852;28;20480;-74
2023/12/18 00:42:42;;;;;;;27.77;14.82;;;7.40;99.90;;;;;;5044847;28;20037;-75
2023/12/18 00:45:08;;;;;;;25.98;13.23;;;7.40;99.90;;;;;;5044387;28;20140;-75
2023/12/18 00:47:33;;;;;;;29.77;14.88;;;7.40;99.90;;;;;;5046144;28;20056;-75
2023/12/18 00:49:59;;;;;;;27.63;13.20;;;7.40;99.90;;;;;;5045388;28;20037;-74
2023/12/18 00:52:25;;;;;;;33.78;14.32;;;7.40;99.90;;;;;;5040970;28;20037;-74
2023/12/18 00:54:50;;;;;;;28.40;13.98;;;7.40;99.90;;;;;;5041598;28;20084;-75
2023/12/18 00:57:16;;;;;;;26.15;13.77;;;7.40;99.90;;;;;;5046029;28;20059;-74
2023/12/18 00:59:41;;;;;;;25.88;12.40;;;7.30;99.90;;;;;;5042814;28;20150;-74
2023/12/18 01:02:07;;;;;;;29.77;12.90;;;7.40;99.90;;;;;;5040036;28;20073;-75
2023/12/18 01:04:33;;;;;;;31.08;18.38;;;7.40;99.90;;;;;;5046877;28;20453;-75
2023/12/18 01:06:58;;;;;;;34.83;14.88;;;7.40;99.90;;;;;;5050304;28;20091;-75
2023/12/18 01:09:24;;;;;;;27.88;14.43;;;7.40;99.90;;;;;;5045176;28;20044;-75
2023/12/18 01:11:50;;;;;;;34.53;19.83;;;7.40;99.90;;;;;;5046351;28;20110;-74
2023/12/18 01:14:16;;;;;;;29.33;14.30;;;7.40;99.90;;;;;;5046505;28;20119;-74
2023/12/18 01:16:42;;;;;;;34.67;15.43;;;7.40;99.90;;;;;;5051280;28;20439;-74
2023/12/18 01:19:07;;;;;;;32.70;14.90;;;7.40;99.90;;;;;;5049052;28;20052;-74
2023/12/18 01:21:34;;;;;;;33.90;14.77;;;7.40;99.90;;;;;;5049018;28;20033;-74
2023/12/18 01:24:00;;;;;;;35.85;14.63;;;7.40;99.90;;;;;;5047189;28;20119;-74
2023/12/18 01:26:25;;;;;;;31.23;14.52;;;7.40;99.90;;;;;;5049445;28;20113;-74
2023/12/18 01:28:51;;;;;;;41.97;26.58;;;7.40;99.90;;;;;;5044038;28;20048;-74
2023/12/18 01:31:23;;;;;;;28.83;14.75;;;7.50;99.90;;;;;;5046130;28;20036;-74
2023/12/18 01:33:51;;;;;;;26.15;15.15;;;7.50;99.90;;;;;;5050554;28;20080;-74
2023/12/18 01:36:17;;;;;;;27.40;13.20;;;7.50;99.90;;;;;;5047942;28;20056;-74
2023/12/18 01:38:42;;;;;;;33.63;19.98;;;7.50;99.90;;;;;;5049836;28;20408;-74
2023/12/18 01:41:08;;;;;;;37.08;15.20;;;7.50;99.90;;;;;;5045074;28;20054;-74
2023/12/18 01:43:34;;;;;;;29.38;13.82;;;7.50;99.90;;;;;;5047273;28;20044;-74
2023/12/18 01:46:01;;;;;;;26.40;12.77;;;7.50;99.90;;;;;;5041609;28;20090;-74
2023/12/18 01:48:28;;;;;;;34.60;20.17;;;7.50;99.90;;;;;;5047965;28;20691;-74
2023/12/18 01:50:55;;;;;;;36.35;14.73;;;7.50;99.90;;;;;;5048728;28;20053;-74
2023/12/18 01:53:27;;;;;;;24.98;14.18;;;7.50;99.90;;;;;;5053514;28;20037;-74
2023/12/18 01:55:54;;;;;;;35.35;15.10;;;7.50;99.90;;;;;;5045153;28;20550;-74
2023/12/18 01:58:20;;;;;;;29.02;15.88;;;7.50;99.90;;;;;;5045062;28;20045;-74
2023/12/18 02:00:46;;;;;;;34.15;17.20;;;7.50;99.90;;;;;;5046134;28;20462;-74
2023/12/18 02:03:12;;;;;;;38.28;19.40;;;7.50;99.90;;;;;;5045595;28;20049;-74
2023/12/18 02:05:40;;;;;;;25.73;14.40;;;7.50;99.90;;;;;;5043085;28;20445;-74
2023/12/18 02:08:06;;;;;;;;;;;7.50;99.90;;;;;;5047135;28;20080;-74
2023/12/18 02:10:32;;;;;;;31.38;16.27;;;7.40;99.90;;;;;;5048723;28;19967;-74
2023/12/18 02:12:57;;;;;;;32.13;14.27;;;7.50;99.90;;;;;;5044215;28;20045;-73
2023/12/18 02:15:23;;;;;;;35.38;15.85;;;7.40;99.90;;;;;;5047975;28;20510;-73
2023/12/18 02:17:51;;;;;;;30.20;15.15;;;7.40;99.90;;;;;;5043911;28;20044;-73
2023/12/18 02:20:17;;;;;;;32.38;14.85;;;7.40;99.90;;;;;;5045337;28;20135;-73
2023/12/18 02:22:46;;;;;;;30.08;15.30;;;7.40;99.90;;;;;;5045916;28;20466;-73
2023/12/18 02:25:12;;;;;;;28.83;16.05;;;7.50;99.90;;;;;;5046465;28;20048;-73
2023/12/18 02:27:38;;;;;;;35.63;16.60;;;7.40;99.90;;;;;;5037861;28;20040;-73
2023/12/18 02:30:05;;;;;;;37.45;28.10;;;7.50;99.90;;;;;;5046890;28;20055;-73
2023/12/18 02:32:30;;;;;;;33.47;16.45;;;7.50;99.90;;;;;;5047791;28;20037;-73
2023/12/18 02:34:56;;;;;;;32.47;15.18;;;7.50;99.90;;;;;;5044147;28;20479;-73
2023/12/18 02:37:23;;;;;;;46.10;30.77;;;7.50;99.90;;;;;;5050576;28;20136;-73
2023/12/18 02:39:49;;;;;;;26.95;14.73;;;7.50;99.90;;;;;;5032238;28;20053;-73
2023/12/18 02:42:15;;;;;;;41.13;30.20;;;7.50;99.90;;;;;;5050117;28;20123;-73
2023/12/18 02:44:41;;;;;;;32.28;16.23;;;7.50;99.90;;;;;;5056429;28;21861;-73
2023/12/18 02:47:06;;;;;;;30.05;14.82;;;7.50;99.90;;;;;;5047589;28;20033;-73
2023/12/18 02:49:32;;;;;;;37.70;27.33;;;7.50;99.90;;;;;;5048114;28;20040;-73
2023/12/18 02:51:58;;;;;;;27.42;14.57;;;7.50;99.90;;;;;;5047933;28;20037;-73
2023/12/18 02:54:23;;;;;;;29.42;15.18;;;7.50;99.90;;;;;;5049732;28;20112;-73
2023/12/18 02:56:49;;;;;;;35.83;16.20;;;7.60;99.90;;;;;;5048731;28;20554;-73
2023/12/18 02:59:14;;;;;;;33.38;16.00;;;7.60;99.90;;;;;;5043409;28;20094;-73
2023/12/18 03:01:40;;;;;;;39.42;20.42;;;7.50;99.90;;;;;;5044690;28;20045;-73
2023/12/18 03:04:05;;;;;;;30.48;14.82;;;7.50;99.90;;;;;;5047670;28;20374;-73
2023/12/18 03:06:31;;;;;;;37.53;28.85;;;7.50;99.90;;;;;;5049535;28;20072;-73
2023/12/18 03:08:57;;;;;;;31.98;19.95;;;7.50;99.90;;;;;;5046525;28;20068;-73
2023/12/18 03:11:22;;;;;;;35.08;15.77;;;7.50;99.90;;;;;;5048339;28;20072;-73
2023/12/18 03:13:48;;;;;;;30.02;15.20;;;7.50;99.90;;;;;;5044227;28;20040;-73
2023/12/18 03:16:14;;;;;;;30.20;15.15;;;7.50;99.90;;;;;;5043674;28;20123;-73
2023/12/18 03:18:40;;;;;;;25.83;15.32;;;7.50;99.90;;;;;;5043733;28;20037;-73
2023/12/18 03:21:10;;;;;;;31.33;15.35;;;7.50;99.90;;;;;;5043387;28;20487;-73
2023/12/18 03:23:36;;;;;;;38.80;28.83;;;7.60;99.90;;;;;;5046969;28;20131;-73
2023/12/18 03:26:02;;;;;;;32.95;17.85;;;7.60;99.90;;;;;;5045551;28;20123;-73
2023/12/18 03:28:28;;;;;;;30.65;15.20;;;7.50;99.90;;;;;;5045187;28;20072;-73
2023/12/18 03:30:53;;;;;;;40.13;18.70;;;7.50;99.90;;;;;;5042672;28;20489;-73
2023/12/18 03:33:19;;;;;;;42.53;28.52;;;7.50;99.90;;;;;;5046231;28;20041;-73
2023/12/18 03:35:45;;;;;;;34.63;15.85;;;7.50;99.90;;;;;;5040824;28;20033;-73
2023/12/18 03:38:12;;;;;;;31.08;17.58;;;7.50;99.90;;;;;;5044785;28;20037;-73
2023/12/18 03:40:38;;;;;;;41.20;29.15;;;7.50;99.90;;;;;;5043579;28;20147;-73
2023/12/18 03:43:04;;;;;;;31.55;15.20;;;7.50;99.90;;;;;;5043310;28;20067;-73
2023/12/18 03:45:29;;;;;;;29.58;15.00;;;7.40;99.90;;;;;;5046478;28;20040;-73
2023/12/18 03:47:55;;;;;;;32.88;15.40;;;7.50;99.90;;;;;;5046324;28;20040;-73
2023/12/18 03:50:21;;;;;;;29.88;16.02;;;7.40;99.90;;;;;;5046554;28;20037;-73
2023/12/18 03:52:46;;;;;;;38.38;24.83;;;7.40;99.90;;;;;;5044409;28;20043;-73
2023/12/18 03:55:12;;;;;;;31.73;14.77;;;7.50;99.90;;;;;;5040554;28;20045;-73
2023/12/18 03:57:38;;;;;;;28.65;15.50;;;7.40;99.90;;;;;;5039270;28;20041;-73
2023/12/18 04:00:04;;;;;;;37.08;17.10;;;7.40;99.90;;;;;;5044456;28;20033;-73
2023/12/18 04:02:30;;;;;;;39.45;17.40;;;7.40;99.90;;;;;;5045340;28;20090;-73
2023/12/18 04:04:55;;;;;;;32.05;15.43;;;7.40;99.90;;;;;;5044789;28;20482;-73
2023/12/18 04:07:21;;;;;;;34.00;22.70;;;7.40;99.90;;;;;;5046312;28;20039;-73
2023/12/18 04:09:47;;;;;;;29.05;15.38;;;7.40;99.90;;;;;;5045850;28;20134;-74
2023/12/18 04:12:12;;;;;;;28.42;14.95;;;7.40;99.90;;;;;;5049088;28;20056;-73
2023/12/18 04:14:38;;;;;;;25.67;13.75;;;7.40;99.90;;;;;;5044831;28;20131;-73
2023/12/18 04:17:03;;;;;;;35.33;14.68;;;7.40;99.90;;;;;;5046389;28;20480;-73
2023/12/18 04:19:29;;;;;;;33.40;26.65;;;7.30;99.90;;;;;;5045549;28;20048;-73
2023/12/18 04:21:55;;;;;;;32.30;14.13;;;7.40;99.90;;;;;;5043599;28;20041;-73
2023/12/18 04:24:20;;;;;;;37.33;23.38;;;7.40;99.90;;;;;;5043275;28;20531;-73
2023/12/18 04:26:46;;;;;;;32.70;18.13;;;7.30;99.90;;;;;;5047951;28;20048;-73
2023/12/18 04:29:12;;;;;;;33.20;15.50;;;7.30;99.90;;;;;;5047769;28;20120;-73
2023/12/18 04:31:37;;;;;;;31.45;15.25;;;7.40;99.90;;;;;;5042980;28;20059;-73
2023/12/18 04:34:03;;;;;;;28.30;17.27;;;7.30;99.90;;;;;;5046369;28;20473;-73
2023/12/18 04:36:29;;;;;;;31.15;15.20;;;7.30;99.90;;;;;;5044982;28;20044;-72
2023/12/18 04:38:54;;;;;;;24.33;13.65;;;7.30;99.90;;;;;;5048481;28;20102;-73
2023/12/18 04:41:21;;;;;;;27.77;14.93;;;7.30;99.90;;;;;;5049485;28;20525;-73
2023/12/18 04:43:47;;;;;;;28.10;14.82;;;7.30;99.90;;;;;;5048311;28;20757;-73
2023/12/18 04:46:13;;;;;;;29.60;16.80;;;7.30;99.90;;;;;;5046971;28;20048;-73
2023/12/18 04:48:38;;;;;;;31.63;14.57;;;7.30;99.90;;;;;;5051995;28;20072;-72
2023/12/18 04:51:04;;;;;;;32.13;15.20;;;7.30;99.90;;;;;;5045282;28;20046;-73
2023/12/18 04:53:33;;;;;;;28.50;14.32;;;7.30;99.90;;;;;;5048320;28;20033;-73
2023/12/18 04:55:59;;;;;;;28.52;15.70;;;7.30;99.90;;;;;;5053851;28;20110;-73
2023/12/18 04:58:25;;;;;;;23.88;13.50;;;7.20;99.90;;;;;;5052053;28;20424;-73
2023/12/18 05:00:50;;;;;;;28.00;14.77;;;7.30;99.90;;;;;;5048666;28;20119;-73
2023/12/18 05:03:16;;;;;;;26.73;13.38;;;7.30;99.90;;;;;;5048491;28;20492;-73
2023/12/18 05:05:41;;;;;;;28.45;14.65;;;7.30;99.90;;;;;;5049847;28;20049;-73
2023/12/18 05:08:08;;;;;;;26.63;14.18;;;7.30;99.90;;;;;;5046267;28;20046;-73
2023/12/18 05:10:34;;;;;;;26.20;15.10;;;7.30;99.90;;;;;;5048997;28;20102;-73
2023/12/18 05:12:59;;;;;;;21.15;14.15;;;7.30;99.90;;;;;;5049027;28;20462;-73
2023/12/18 05:15:25;;;;;;;27.38;14.38;;;7.30;99.90;;;;;;5049614;28;20124;-73
2023/12/18 05:17:50;;;;;;;25.48;15.25;;;7.30;99.90;;;;;;5048796;28;20041;-73
2023/12/18 05:20:16;;;;;;;26.75;16.05;;;7.30;99.90;;;;;;5050137;28;20045;-73
2023/12/18 05:22:42;;;;;;;24.25;13.70;;;7.30;99.90;;;;;;5047273;28;20059;-73
2023/12/18 05:25:09;;;;;;;33.42;26.17;;;7.30;99.90;;;;;;5044944;28;20044;-73
2023/12/18 05:27:35;;;;;;;31.60;15.30;;;7.30;99.90;;;;;;5045540;28;20044;-73
2023/12/18 05:30:01;;;;;;;32.80;15.32;;;7.40;99.90;;;;;;5048381;28;20120;-73
2023/12/18 05:32:27;;;;;;;27.30;14.23;;;7.30;99.90;;;;;;5048565;28;20455;-73
2023/12/18 05:34:53;;;;;;;29.55;18.33;;;7.30;99.90;;;;;;5048039;28;20048;-73
2023/12/18 05:37:19;;;;;;;32.70;14.98;;;7.40;99.90;;;;;;5049109;28;20450;-73
2023/12/18 05:39:44;;;;;;;28.60;14.18;;;7.30;99.90;;;;;;5044795;28;20508;-73
2023/12/18 05:42:11;;;;;;;24.83;14.82;;;7.40;99.90;;;;;;5048118;28;20052;-73
2023/12/18 05:44:37;;;;;;;31.90;21.45;;;7.40;99.90;;;;;;5047768;28;20468;-73
2023/12/18 05:47:03;;;;;;;37.05;26.17;;;7.40;99.90;;;;;;5048832;28;20084;-73
2023/12/18 05:49:28;;;;;;;26.58;14.00;;;7.40;99.90;;;;;;5043333;28;20119;-73
2023/12/18 05:51:54;;;;;;;27.33;12.73;;;7.40;99.90;;;;;;5047587;28;20132;-73
2023/12/18 05:54:20;;;;;;;27.70;14.18;;;7.40;99.90;;;;;;5040252;28;20142;-73
2023/12/18 05:56:48;;;;;;;33.05;25.92;;;7.40;99.90;;;;;;5047493;28;20075;-73
2023/12/18 05:59:14;;;;;;;22.42;14.10;;;7.50;99.90;;;;;;5046714;28;20063;-73
2023/12/18 06:01:40;;;;;;;23.05;13.43;;;7.50;99.90;;;;;;5048987;28;20109;-73
2023/12/18 06:04:05;;;;;;;32.08;15.93;;;7.50;99.90;;;;;;5048318;28;20556;-73
2023/12/18 06:06:31;;;;;;;30.83;16.58;;;7.50;99.90;;;;;;5048017;28;20045;-73
2023/12/18 06:08:57;;;;;;;27.13;14.15;;;7.40;99.90;;;;;;5037396;28;20049;-74
2023/12/18 06:11:22;;;;;;;23.65;14.23;;;7.50;99.90;;;;;;5043964;28;20116;-73
2023/12/18 06:13:48;;;;;;;23.85;13.65;;;7.50;99.90;;;;;;5038426;28;20075;-75
2023/12/18 06:16:13;;;;;;;30.50;14.30;;;7.50;99.90;;;;;;5048304;28;20052;-79
2023/12/18 06:18:39;;;;;;;26.58;12.70;;;7.50;99.90;;;;;;5046167;28;20080;-75
2023/12/18 06:21:05;;;;;;;26.05;13.68;;;7.50;99.90;;;;;;5040054;28;20048;-74
2023/12/18 06:23:32;;;;;;;25.23;16.10;;;7.50;99.90;;;;;;5042119;28;20045;-73
2023/12/18 06:25:57;;;;;;;26.17;19.77;;;7.50;99.90;;;;;;5043934;28;20128;-74
2023/12/18 06:28:23;;;;;;;30.92;14.75;;;7.50;99.90;;;;;;5050706;28;20120;-75
2023/12/18 06:30:49;;;;;;;30.40;13.88;;;7.50;99.90;;;;;;5042223;28;20064;-73
2023/12/18 06:33:15;;;;;;;25.42;13.73;;;7.50;99.90;;;;;;5039808;28;20103;-74
2023/12/18 06:35:41;;;;;;;23.42;12.95;;;7.50;99.90;;;;;;5045528;28;20048;-74
2023/12/18 06:38:07;;;;;;;26.40;13.67;;;7.50;99.90;;;;;;5040801;28;20069;-74
2023/12/18 06:40:33;;;;;;;24.88;13.75;;;7.50;99.90;;;;;;5036164;28;20077;-74
2023/12/18 06:42:58;;;;;;;31.25;18.13;;;7.50;99.90;;;;;;5042150;28;20041;-74
2023/12/18 06:45:24;;;;;;;26.73;14.00;;;7.60;99.90;;;;;;5038946;28;20045;-74
2023/12/18 06:47:50;;;;;;;27.13;13.43;;;7.50;99.90;;;;;;5036798;28;20094;-74
2023/12/18 06:50:15;;;;;;;27.08;14.05;;;7.50;99.90;;;;;;5036846;28;20052;-74
2023/12/18 06:52:42;;;;;;;26.25;13.35;;;7.50;99.90;;;;;;5040705;28;20049;-74
2023/12/18 06:55:08;;;;;;;26.50;13.95;;;7.50;99.90;;;;;;5045469;28;20564;-74
2023/12/18 06:57:34;;;;;;;32.67;15.75;;;7.50;99.90;;;;;;5045169;28;20730;-73
2023/12/18 07:00:00;;;;;;;39.72;27.38;;;7.60;99.90;;;;;;5045511;28;20069;-73
2023/12/18 07:02:26;;;;;;;30.55;14.73;;;7.50;99.90;;;;;;5037468;28;20151;-73
2023/12/18 07:04:52;;;;;;;27.85;13.75;;;7.60;99.90;;;;;;5042739;28;20059;-74
2023/12/18 07:07:18;;;;;;;27.30;14.35;;;7.60;99.90;;;;;;5037742;28;20154;-78
2023/12/18 07:09:44;;;;;;;30.83;15.68;;;7.60;99.90;;;;;;5063255;28;20091;-76
2023/12/18 07:12:10;;;;;;;29.50;14.70;;;7.50;99.90;;;;;;5037128;28;20064;-78
2023/12/18 07:14:38;;;;;;;29.85;14.57;;;7.60;99.90;;;;;;5048373;28;20080;-79
2023/12/18 07:17:04;;;;;;;26.20;15.30;;;7.60;99.90;;;;;;5047313;28;20484;-76
2023/12/18 07:19:30;;;;;;;33.03;16.15;;;7.60;99.90;;;;;;5041520;28;20051;-75
2023/12/18 07:21:55;;;;;;;26.48;15.45;;;7.60;99.90;;;;;;5046066;28;20064;-75
2023/12/18 07:24:21;;;;;;;33.50;26.60;;;7.60;99.90;;;;;;5052848;28;20043;-75
2023/12/18 07:26:47;;;;;;;25.63;15.60;;;7.60;99.90;;;;;;5054450;28;20044;-75
2023/12/18 07:29:15;;;;;;;26.38;14.25;;;7.60;99.90;;;;;;5041754;28;20040;-76
2023/12/18 07:31:41;;;;;;;24.30;14.90;;;7.70;99.90;;;;;;5045772;28;20056;-77
2023/12/18 07:34:06;;;;;;;32.53;14.35;;;7.60;99.90;;;;;;5045893;28;20037;-78
2023/12/18 07:36:35;;;;;;;26.52;14.85;;;7.70;99.90;;;;;;5042598;28;20505;-77
2023/12/18 07:39:01;;;;;;;25.20;14.18;;;7.70;99.90;;;;;;5045764;28;20056;-77
2023/12/18 07:41:30;;;;;;;24.15;15.05;;;7.70;99.90;;;;;;5046530;28;20036;-77
2023/12/18 07:43:56;;;;;;;25.70;15.55;;;7.70;99.90;;;;;;5046729;28;20053;-77
2023/12/18 07:46:22;;;;;;;25.50;15.45;;;7.60;99.90;;;;;;5046465;28;20041;-77
2023/12/18 07:48:48;;;;;;;32.33;16.15;;;7.70;99.90;;;;;;5044550;28;20041;-77
2023/12/18 07:51:14;;;;;;;28.15;14.60;;;7.60;99.90;;;;;;5047814;28;20039;-76
2023/12/18 07:53:40;;;;;;;42.92;29.02;;;7.60;99.90;;;;;;5043942;28;20040;-75
2023/12/18 07:56:06;;;;;;;29.92;16.55;;;7.70;99.90;;;;;;5044409;28;20512;-77
2023/12/18 07:58:31;;;;;;;26.67;14.95;;;7.60;99.90;;;;;;5047662;28;20461;-78
2023/12/18 08:00:57;;;;;;;30.75;15.30;;;7.70;99.90;;;;;;5048330;28;20400;-83
2023/12/18 08:03:23;;;;;;;32.83;16.95;;;7.60;99.90;;;;;;5046356;28;20049;-79
2023/12/18 08:05:48;;;;;;;30.00;16.65;;;7.70;99.90;;;;;;5047971;28;20079;-79
2023/12/18 08:08:14;;;;;;;30.20;16.23;;;7.60;99.90;;;;;;5046539;28;20037;-82
2023/12/18 08:10:40;;;;;;;31.73;16.40;;;7.60;99.90;;;;;;5046050;28;20087;-81
2023/12/18 08:13:05;;;;;;;31.13;17.92;;;7.60;99.90;;;;;;5050076;28;20040;-79
2023/12/18 08:15:31;;;;;;;29.63;15.85;;;7.60;99.90;;;;;;5046915;28;20373;-78
2023/12/18 08:17:57;;;;;;;25.85;16.30;;;7.60;99.90;;;;;;5048558;28;20055;-79
2023/12/18 08:20:23;;;;;;;31.98;18.65;;;7.60;99.90;;;;;;5047744;28;20041;-76
2023/12/18 08:22:49;;;;;;;36.00;18.02;;;7.70;99.90;;;;;;5052778;28;20541;-80
2023/12/18 08:25:14;;;;;;;37.80;16.02;;;7.70;99.90;;;;;;5053989;28;20041;-78
2023/12/18 08:27:40;;;;;;;39.35;31.27;;;7.70;99.90;;;;;;5049197;28;20492;-79
2023/12/18 08:30:10;;;;;;;36.03;16.25;;;7.70;99.90;;;;;;5047747;28;20052;-83
2023/12/18 08:32:37;;;;;;;30.20;17.77;;;7.70;99.90;;;;;;5037556;28;20504;-78
2023/12/18 08:35:03;;;;;;;31.15;16.27;;;7.70;99.90;;;;;;5049163;28;20618;-78
2023/12/18 08:37:29;;;;;;;31.20;17.52;;;7.70;99.90;;;;;;5052140;28;20072;-80
2023/12/18 08:39:56;;;;;;;35.42;23.88;;;7.70;99.90;;;;;;5048124;28;20140;-80
2023/12/18 08:42:22;;;;;;;29.10;16.85;;;7.70;99.90;;;;;;5050119;28;20060;-81
2023/12/18 08:44:48;;;;;;;34.00;16.65;;;7.70;99.90;;;;;;5043455;28;20185;-77
2023/12/18 08:47:13;;;;;;;37.25;16.42;;;7.70;99.90;;;;;;5045909;28;20132;-79
2023/12/18 08:49:39;;;;;;;37.90;19.13;;;7.70;99.90;;;;;;5044760;28;20044;-79
2023/12/18 08:52:05;;;;;;;34.20;16.85;;;7.80;99.90;;;;;;5047584;28;20412;-80
2023/12/18 08:54:31;;;;;;;40.40;24.20;;;7.70;99.90;;;;;;5040208;28;20585;-80
2023/12/18 08:56:56;;;;;;;36.15;21.42;;;7.70;99.90;;;;;;5039989;28;20041;-78
2023/12/18 08:59:22;;;;;;;32.30;18.75;;;7.80;99.90;;;;;;5050424;28;20049;-80
2023/12/18 09:01:47;;;;;;;33.70;18.70;;;7.70;99.90;;;;;;5042677;28;20033;-80
2023/12/18 09:04:13;;;;;;;38.83;18.17;;;7.70;99.90;;;;;;5047929;28;20408;-80
2023/12/18 09:06:39;;;;;;;32.90;17.95;;;7.70;99.90;;;;;;5044406;28;20064;-80
2023/12/18 09:09:05;;;;;;;46.45;34.50;;;7.70;99.90;;;;;;5039623;28;20510;-82
2023/12/18 09:11:33;;;;;;;40.03;18.92;;;7.80;99.90;;;;;;5048266;28;20041;-75
2023/12/18 09:14:00;;;;;;;40.15;18.92;;;7.80;99.90;;;;;;5046877;28;20060;-78
2023/12/18 09:16:26;;;;;;;38.55;21.65;;;7.80;99.90;;;;;;5051961;28;20127;-79
2023/12/18 09:18:52;;;;;;;38.97;19.35;;;7.80;99.90;;;;;;5046095;28;20492;-79
2023/12/18 09:21:17;;;;;;;37.25;19.50;;;7.80;99.90;;;;;;5043039;28;20083;-80
2023/12/18 09:23:44;;;;;;;36.85;20.88;;;7.80;99.90;;;;;;5051030;28;20037;-79
2023/12/18 09:26:12;;;;;;;31.50;19.08;;;7.90;99.90;;;;;;5053978;28;20049;-80
2023/12/18 09:28:38;;;;;;;35.83;19.65;;;7.90;99.90;;;;;;5055872;28;20048;-80
2023/12/18 09:31:05;;;;;;;32.50;19.20;;;8.00;99.90;;;;;;5055371;28;20047;-78
2023/12/18 09:33:33;;;;;;;49.90;36.80;;;8.00;99.90;;;;;;5050512;28;20052;-82
2023/12/18 09:35:59;;;;;;;42.13;20.48;;;8.00;99.90;;;;;;5051017;28;20047;-81
2023/12/18 09:38:25;;;;;;;37.35;19.65;;;7.90;99.90;;;;;;5049408;28;20053;-80
2023/12/18 09:40:51;;;;;;;35.65;19.75;;;7.90;99.90;;;;;;5056916;28;20222;-81
2023/12/18 09:43:17;;;;;;;35.67;18.48;;;8.00;99.90;;;;;;5046691;28;20127;-79
2023/12/18 09:45:46;;;;;;;36.25;19.88;;;8.00;99.90;;;;;;5057280;28;20123;-81
2023/12/18 09:48:11;;;;;;;37.70;26.15;;;7.90;99.90;;;;;;5050025;28;20132;-81
2023/12/18 09:50:37;;;;;;;48.97;37.63;;;8.00;99.90;;;;;;5042156;28;20132;-80
2023/12/18 09:53:09;;;;;;;39.88;18.92;;;8.10;99.90;;;;;;5046787;28;20045;-80
2023/12/18 09:55:35;;;;;;;37.45;19.30;;;8.10;99.90;;;;;;5048892;28;20722;-82
2023/12/18 09:58:00;;;;;;;38.47;19.10;;;8.10;99.90;;;;;;5040930;28;20041;-81
2023/12/18 10:00:27;;;;;;;35.50;18.98;;;8.10;99.90;;;;;;5040616;28;20045;-81
2023/12/18 10:02:57;;;;;;;40.20;20.70;;;8.00;99.90;;;;;;5045148;28;20056;-79
2023/12/18 10:05:23;;;;;;;40.13;20.00;;;8.00;99.90;;;;;;5048634;28;20071;-80
2023/12/18 10:07:48;;;;;;;36.58;18.65;;;8.10;99.90;;;;;;5051988;28;20073;-81
2023/12/18 10:10:15;;;;;;;37.60;20.25;;;8.00;99.90;;;;;;5045176;28;20045;-80
2023/12/18 10:12:41;;;;;;;34.72;19.55;;;8.10;99.90;;;;;;5045712;28;20549;-80
2023/12/18 10:15:09;;;;;;;34.58;18.92;;;8.10;99.90;;;;;;5049968;28;20056;-79
2023/12/18 10:17:37;;;;;;;44.80;31.08;;;8.00;99.90;;;;;;5047438;28;20049;-80
2023/12/18 10:20:03;;;;;;;38.30;20.13;;;8.10;99.90;;;;;;5041317;28;20090;-81
2023/12/18 10:22:29;;;;;;;38.78;20.70;;;8.10;99.90;;;;;;5046588;28;20586;-80
2023/12/18 10:25:04;;;;;;;43.75;20.80;;;8.00;99.90;;;;;;5057926;28;20381;-81
2023/12/18 10:27:33;;;;;;;46.90;36.83;;;8.00;99.90;;;;;;5044900;28;20041;-79
2023/12/18 10:30:02;;;;;;;34.78;19.77;;;8.10;99.90;;;;;;5046313;28;20045;-79
2023/12/18 10:32:29;;;;;;;44.72;29.77;;;8.10;99.90;;;;;;5049840;28;20175;-78
2023/12/18 10:34:58;;;;;;;38.60;18.88;;;8.10;99.90;;;;;;5046748;28;20041;-77
2023/12/18 10:37:29;;;;;;;37.08;19.48;;;8.10;99.90;;;;;;5037017;28;20079;-80
2023/12/18 10:40:06;;;;;;;41.83;24.30;;;8.10;99.90;;;;;;5045690;28;20057;-81
2023/12/18 10:42:36;;;;;;;35.60;19.58;;;8.10;99.90;;;;;;5050012;28;20045;-79
2023/12/18 10:45:06;;;;;;;43.35;19.33;;;8.10;99.90;;;;;;5037676;28;20041;-79
2023/12/18 10:47:33;;;;;;;38.45;18.83;;;8.10;99.90;;;;;;5041700;28;20443;-81
2023/12/18 10:50:04;;;;;;;52.92;37.03;;;8.10;99.90;;;;;;5042920;28;20052;-78
2023/12/18 10:52:31;;;;;;;37.80;18.90;;;8.20;99.90;;;;;;5043954;28;20048;-79
2023/12/18 10:55:03;;;;;;;42.53;19.35;;;8.20;99.90;;;;;;5041921;28;20049;-77
2023/12/18 10:57:31;;;;;;;34.97;18.80;;;8.10;99.90;;;;;;5048961;28;20047;-78
2023/12/18 10:59:59;;;;;;;45.88;18.77;;;8.20;99.90;;;;;;5046843;28;20407;-73
2023/12/18 11:02:26;;;;;;;49.45;37.83;;;8.10;99.90;;;;;;5047495;28;20087;-75
2023/12/18 11:04:54;;;;;;;47.05;37.45;;;8.20;99.90;;;;;;5047888;28;20041;-74
2023/12/18 11:07:20;;;;;;;32.83;19.13;;;8.20;99.90;;;;;;5046205;28;20053;-75
2023/12/18 11:09:49;;;;;;;38.00;20.15;;;8.20;99.90;;;;;;5043912;28;20045;-75
2023/12/18 11:12:17;;;;;;;34.50;20.55;;;8.20;99.90;;;;;;5047050;28;20049;-75
2023/12/18 11:15:05;;;;;;;47.38;36.50;;;8.20;99.90;;;;;;5034240;28;20152;-75
2023/12/18 11:17:59;;;;;;;41.13;26.90;;;8.20;99.90;;;;;;5046648;28;20124;-74
2023/12/18 11:20:33;;;;;;;42.15;18.25;;;8.20;99.90;;;;;;5045959;28;20056;-75
2023/12/18 11:23:00;;;;;;;44.22;27.27;;;8.20;99.90;;;;;;5046582;28;20037;-75
2023/12/18 11:25:35;;;;;;;50.67;34.97;;;8.20;99.90;;;;;;5068630;28;20049;-75
2023/12/18 11:28:03;;;;;;;37.58;19.02;;;8.20;99.90;;;;;;5042642;28;20049;-76
2023/12/18 11:30:31;;;;;;;42.75;18.45;;;8.20;99.90;;;;;;5046900;28;20068;-75
2023/12/18 11:32:58;;;;;;;45.10;34.53;;;8.20;99.90;;;;;;5069556;28;20041;-78
2023/12/18 11:35:32;;;;;;;41.28;19.63;;;8.20;99.90;;;;;;5034141;28;20046;-77
2023/12/18 11:38:02;;;;;;;36.88;17.92;;;8.20;99.90;;;;;;5048563;28;20052;-77
2023/12/18 11:40:32;;;;;;;48.60;33.83;;;8.30;99.90;;;;;;5049175;28;20484;-76
2023/12/18 11:42:58;;;;;;;35.45;18.08;;;8.30;99.90;;;;;;5044023;28;20057;-78
2023/12/18 11:45:27;;;;;;;33.33;17.92;;;8.30;99.90;;;;;;5045017;28;20045;-79
2023/12/18 11:47:57;;;;;;;36.90;19.27;;;8.30;99.90;;;;;;5041275;28;20045;-78
2023/12/18 11:50:26;;;;;;;42.83;33.03;;;8.30;99.90;;;;;;5046623;28;20052;-78
2023/12/18 11:52:56;;;;;;;36.35;17.30;;;8.40;99.90;;;;;;5047094;28;20395;-77
2023/12/18 11:55:39;;;;;;;44.88;33.55;;;8.40;99.90;;;;;;5044499;28;20080;-78
2023/12/18 11:58:05;;;;;;;42.38;32.78;;;8.40;99.90;;;;;;5061420;28;20049;-76
2023/12/18 12:00:31;;;;;;;37.33;18.90;;;8.40;99.90;;;;;;5052014;28;20381;-78
2023/12/18 12:02:58;;;;;;;34.95;16.95;;;8.40;99.90;;;;;;5046005;28;20571;-78
2023/12/18 12:05:24;;;;;;;40.83;31.95;;;8.40;99.90;;;;;;5034187;28;20103;-74
2023/12/18 12:07:51;;;;;;;32.28;17.13;;;8.50;99.90;;;;;;5046072;28;20044;-73
2023/12/18 12:10:16;;;;;;;39.70;31.55;;;8.50;99.90;;;;;;5049058;28;20559;-73
2023/12/18 12:12:43;;;;;;;35.70;19.35;;;8.50;99.90;;;;;;5044577;28;20048;-72
2023/12/18 12:15:10;;;;;;;47.78;32.08;;;8.50;99.90;;;;;;5043464;28;20041;-75
2023/12/18 12:17:36;;;;;;;36.85;16.83;;;8.60;99.90;;;;;;5043568;28;20040;-76
2023/12/18 12:20:01;;;;;;;39.33;31.70;;;8.60;99.90;;;;;;5035194;28;20033;-75
2023/12/18 12:22:29;;;;;;;31.67;17.05;;;8.60;99.90;;;;;;5044558;28;20037;-78
2023/12/18 12:24:54;;;;;;;36.20;18.05;;;8.60;99.90;;;;;;5043893;28;20715;-78
2023/12/18 12:27:20;;;;;;;40.67;30.90;;;8.60;99.90;;;;;;5048650;28;20120;-77
2023/12/18 12:29:46;;;;;;;30.10;17.08;;;8.60;99.90;;;;;;5043149;28;20053;-78
2023/12/18 12:32:13;;;;;;;39.20;19.35;;;8.60;99.90;;;;;;5044042;28;20049;-76
2023/12/18 12:34:39;;;;;;;38.30;29.48;;;8.60;99.90;;;;;;5047499;28;20541;-76